createdAt,value
2018-03-07T00:01:15.375Z,85.72
2018-03-07T00:03:42.974Z,89.80
2018-03-07T00:06:10.549Z,84.76
2018-03-07T00:08:38.116Z,86.60
2018-03-07T00:11:05.862Z,88.38
2018-03-07T00:13:33.424Z,89.53
2018-03-07T00:16:00.978Z,89.59
2018-03-07T00:18:28.583Z,92.50
2018-03-07T00:20:56.160Z,92.65
2018-03-07T00:23:23.730Z,93.44
2018-03-07T00:25:51.371Z,93.07
2018-03-07T00:28:18.940Z,94.24
2018-03-07T00:30:46.508Z,94.64
2018-03-07T00:33:14.122Z,96.26
2018-03-07T00:35:41.678Z,96.28
2018-03-07T00:38:09.260Z,96.63
2018-03-07T00:40:36.862Z,96.54
2018-03-07T00:43:04.422Z,96.23
2018-03-07T00:45:31.981Z,96.39
2018-03-07T00:47:59.712Z,96.76
2018-03-07T00:50:27.284Z,97.35
2018-03-07T00:52:54.860Z,97.75
2018-03-07T00:55:22.463Z,98.30
2018-03-07T00:57:50.025Z,98.94
2018-03-07T01:00:17.642Z,99.24
2018-03-07T01:02:45.251Z,100.00
2018-03-07T01:05:12.816Z,100.00
2018-03-07T01:07:40.378Z,100.00
2018-03-07T01:10:07.955Z,100.00
2018-03-07T01:12:35.505Z,100.00
2018-03-07T01:15:03.059Z,99.42
2018-03-07T01:17:30.643Z,98.30
2018-03-07T01:19:58.200Z,96.00
2018-03-07T01:22:25.758Z,94.67
2018-03-07T01:24:53.354Z,93.87
2018-03-07T01:27:20.970Z,94.10
2018-03-07T01:29:48.535Z,94.05
2018-03-07T01:32:16.277Z,93.46
2018-03-07T01:34:43.844Z,93.89
2018-03-07T01:37:11.418Z,93.40
2018-03-07T01:39:39.018Z,92.98
2018-03-07T01:42:06.731Z,92.97
2018-03-07T01:44:34.289Z,92.65
2018-03-07T01:47:01.922Z,92.67
2018-03-07T01:49:29.480Z,93.16
2018-03-07T01:52:02.084Z,93.73
2018-03-07T01:54:29.646Z,94.53
2018-03-07T01:56:57.217Z,94.88
2018-03-07T01:59:24.830Z,94.97
2018-03-07T02:01:52.397Z,95.37
2018-03-07T02:04:19.960Z,95.55
2018-03-07T02:06:47.558Z,95.38
2018-03-07T02:09:15.114Z,95.37
2018-03-07T02:11:42.663Z,95.71
2018-03-07T02:14:10.258Z,95.90
2018-03-07T02:16:37.818Z,95.80
2018-03-07T02:19:05.385Z,95.77
2018-03-07T02:21:32.989Z,95.81
2018-03-07T02:24:00.556Z,95.94
2018-03-07T02:26:28.136Z,96.11
2018-03-07T02:28:55.736Z,96.07
2018-03-07T02:31:23.318Z,95.79
2018-03-07T02:33:50.878Z,95.78
2018-03-07T02:36:30.091Z,95.46
2018-03-07T02:38:57.662Z,94.52
2018-03-07T02:41:25.234Z,93.75
2018-03-07T02:43:52.831Z,93.46
2018-03-07T02:46:20.392Z,93.53
2018-03-07T02:48:47.946Z,93.75
2018-03-07T02:51:15.599Z,94.26
2018-03-07T02:53:43.163Z,94.55
2018-03-07T02:56:10.731Z,94.70
2018-03-07T02:58:38.332Z,95.36
2018-03-07T03:01:05.901Z,95.81
2018-03-07T03:03:33.465Z,95.57
2018-03-07T03:06:01.081Z,95.68
2018-03-07T03:08:28.646Z,95.80
2018-03-07T03:10:56.207Z,95.94
2018-03-07T03:13:23.815Z,96.23
2018-03-07T03:15:51.377Z,96.52
2018-03-07T03:18:18.944Z,96.65
2018-03-07T03:20:46.567Z,97.02
2018-03-07T03:23:14.126Z,97.13
2018-03-07T03:25:41.685Z,97.29
2018-03-07T03:28:09.287Z,97.54
2018-03-07T03:30:36.860Z,97.56
2018-03-07T03:33:04.430Z,97.51
2018-03-07T03:35:32.033Z,97.59
2018-03-07T03:37:59.632Z,97.41
2018-03-07T03:40:27.192Z,97.77
2018-03-07T03:42:54.797Z,97.93
2018-03-07T03:45:22.357Z,98.09
2018-03-07T03:47:49.920Z,98.04
2018-03-07T03:50:17.524Z,98.47
2018-03-07T03:52:45.126Z,99.02
2018-03-07T03:55:12.695Z,99.62
2018-03-07T03:57:40.302Z,99.84
2018-03-07T04:00:07.862Z,99.75
2018-03-07T04:02:35.429Z,99.98
2018-03-07T04:05:03.026Z,100.00
2018-03-07T04:07:30.606Z,100.00
2018-03-07T04:09:58.183Z,100.00
2018-03-07T04:12:25.810Z,99.81
2018-03-07T04:14:53.375Z,99.38
2018-03-07T04:17:20.939Z,99.17
2018-03-07T04:19:48.534Z,98.90
2018-03-07T04:22:16.103Z,98.98
2018-03-07T04:24:43.678Z,98.85
2018-03-07T04:27:11.301Z,98.79
2018-03-07T04:29:38.996Z,98.89
2018-03-07T04:32:06.567Z,98.94
2018-03-07T04:34:34.175Z,99.01
2018-03-07T04:37:01.743Z,99.04
2018-03-07T04:39:29.309Z,99.52
2018-03-07T04:41:56.914Z,99.60
2018-03-07T04:44:24.484Z,100.00
2018-03-07T04:46:52.048Z,100.00
2018-03-07T04:49:19.656Z,100.00
2018-03-07T04:51:47.232Z,100.00
2018-03-07T04:54:14.802Z,100.00
2018-03-07T04:56:42.412Z,100.00
2018-03-07T04:59:09.981Z,100.00
2018-03-07T05:01:37.598Z,100.00
2018-03-07T05:04:05.197Z,100.00
2018-03-07T05:06:32.762Z,100.00
2018-03-07T05:09:00.342Z,100.00
2018-03-07T05:11:27.956Z,100.00
2018-03-07T05:13:55.514Z,93.67
2018-03-07T05:16:23.070Z,85.72
2018-03-07T05:18:50.683Z,84.48
2018-03-07T05:21:18.247Z,79.97
2018-03-07T05:23:45.820Z,73.76
2018-03-07T05:26:13.429Z,72.76
2018-03-07T05:28:40.998Z,71.01
2018-03-07T05:31:08.568Z,73.74
2018-03-07T05:33:36.180Z,72.59
2018-03-07T05:36:03.754Z,72.25
2018-03-07T05:38:31.377Z,69.25
2018-03-07T05:40:58.976Z,66.03
2018-03-07T05:43:26.537Z,62.69
2018-03-07T05:45:54.277Z,63.93
2018-03-07T05:48:21.886Z,63.95
2018-03-07T05:50:49.448Z,63.58
2018-03-07T05:53:17.095Z,59.46
2018-03-07T05:55:44.714Z,56.70
2018-03-07T05:58:12.298Z,55.92
2018-03-07T06:00:39.863Z,52.93
2018-03-07T06:03:07.478Z,50.70
2018-03-07T06:05:35.092Z,47.41
2018-03-07T06:08:02.711Z,46.49
2018-03-07T06:10:30.321Z,44.45
2018-03-07T06:12:57.907Z,42.96
2018-03-07T06:15:25.477Z,42.66
2018-03-07T06:17:53.087Z,40.92
2018-03-07T06:20:20.654Z,40.28
2018-03-07T06:22:48.231Z,40.37
2018-03-07T06:25:15.842Z,38.11
2018-03-07T06:27:43.420Z,37.50
2018-03-07T06:30:11.048Z,37.14
2018-03-07T06:32:38.654Z,36.82
2018-03-07T06:35:06.223Z,37.08
2018-03-07T06:37:33.795Z,35.98
2018-03-07T06:40:01.410Z,35.08
2018-03-07T06:42:28.992Z,34.67
2018-03-07T06:44:56.554Z,35.28
2018-03-07T06:47:24.174Z,34.19
2018-03-07T06:49:51.748Z,34.02
2018-03-07T06:52:19.311Z,35.82
2018-03-07T06:54:46.952Z,33.92
2018-03-07T06:57:14.523Z,34.15
2018-03-07T06:59:42.091Z,33.78
2018-03-07T07:02:09.698Z,33.39
2018-03-07T07:04:37.260Z,33.77
2018-03-07T07:07:04.832Z,34.36
2018-03-07T07:09:32.440Z,32.35
2018-03-07T07:12:00.041Z,32.38
2018-03-07T07:14:27.611Z,30.88
2018-03-07T07:16:55.231Z,30.85
2018-03-07T07:19:22.807Z,30.52
2018-03-07T07:21:50.390Z,31.60
2018-03-07T07:24:18.011Z,31.62
2018-03-07T07:26:45.819Z,30.91
2018-03-07T07:29:13.439Z,29.88
2018-03-07T07:31:41.048Z,30.44
2018-03-07T07:34:08.610Z,30.53
2018-03-07T07:36:36.180Z,30.05
2018-03-07T07:39:03.886Z,29.82
2018-03-07T07:41:31.580Z,30.62
2018-03-07T07:43:59.210Z,29.55
2018-03-07T07:46:26.824Z,29.13
2018-03-07T07:48:54.433Z,26.95
2018-03-07T07:51:22.035Z,28.42
2018-03-07T07:53:49.837Z,30.43
2018-03-07T07:56:17.402Z,29.94
2018-03-07T07:58:45.180Z,28.66
2018-03-07T08:01:12.787Z,28.95
2018-03-07T08:03:40.355Z,27.45
2018-03-07T08:06:07.975Z,27.07
2018-03-07T08:08:35.588Z,28.10
2018-03-07T08:11:03.293Z,27.35
2018-03-07T08:13:30.869Z,28.01
2018-03-07T08:15:58.484Z,27.36
2018-03-07T08:18:26.061Z,25.84
2018-03-07T08:20:53.620Z,26.57
2018-03-07T08:23:21.291Z,25.32
2018-03-07T08:25:48.850Z,24.81
2018-03-07T08:28:16.406Z,23.77
2018-03-07T08:30:43.986Z,23.70
2018-03-07T08:33:11.531Z,23.18
2018-03-07T08:35:39.132Z,24.02
2018-03-07T08:38:07.173Z,23.13
2018-03-07T08:40:34.733Z,24.14
2018-03-07T08:43:02.290Z,24.12
2018-03-07T08:45:29.907Z,23.92
2018-03-07T08:47:57.465Z,24.57
2018-03-07T08:50:25.024Z,24.58
2018-03-07T08:52:52.651Z,27.31
2018-03-07T08:55:20.218Z,26.64
2018-03-07T08:57:47.847Z,24.71
2018-03-07T09:00:15.430Z,24.58
2018-03-07T09:02:43.003Z,25.29
2018-03-07T09:05:10.562Z,25.43
2018-03-07T09:07:38.173Z,23.79
2018-03-07T09:10:05.747Z,24.71
2018-03-07T09:12:33.310Z,25.96
2018-03-07T09:15:00.908Z,24.45
2018-03-07T09:17:28.475Z,23.89
2018-03-07T09:19:56.034Z,24.67
2018-03-07T09:22:23.649Z,24.78
2018-03-07T09:24:51.204Z,24.19
2018-03-07T09:27:18.951Z,25.34
2018-03-07T09:29:46.563Z,26.25
2018-03-07T09:32:14.299Z,27.92
2018-03-07T09:34:41.857Z,26.34
2018-03-07T09:37:09.456Z,25.27
2018-03-07T09:39:37.011Z,25.19
2018-03-07T09:42:04.561Z,25.43
2018-03-07T09:44:32.164Z,25.06
2018-03-07T09:46:59.715Z,25.46
2018-03-07T09:49:27.282Z,29.00
2018-03-07T09:51:54.878Z,27.89
2018-03-07T09:54:22.476Z,25.44
2018-03-07T09:56:50.028Z,27.26
2018-03-07T09:59:17.625Z,25.20
2018-03-07T10:01:45.178Z,26.98
2018-03-07T10:04:12.727Z,24.94
2018-03-07T10:06:40.332Z,25.78
2018-03-07T10:09:07.899Z,26.32
2018-03-07T10:11:35.464Z,25.72
2018-03-07T10:14:03.059Z,24.99
2018-03-07T10:16:30.646Z,26.20
2018-03-07T10:18:58.210Z,26.83
2018-03-07T10:21:25.800Z,26.43
2018-03-07T10:23:53.365Z,26.91
2018-03-07T10:26:20.909Z,26.41
2018-03-07T10:28:48.496Z,26.14
2018-03-07T10:31:16.039Z,27.41
2018-03-07T10:33:43.578Z,25.44
2018-03-07T10:36:11.200Z,26.45
2018-03-07T10:38:38.755Z,27.47
2018-03-07T10:41:06.308Z,28.46
2018-03-07T10:43:33.914Z,26.50
2018-03-07T10:46:01.690Z,26.24
2018-03-07T10:48:29.307Z,25.55
2018-03-07T10:50:56.928Z,25.56
2018-03-07T10:53:24.488Z,26.87
2018-03-07T10:55:52.129Z,28.32
2018-03-07T10:58:19.953Z,30.09
2018-03-07T11:00:47.519Z,29.70
2018-03-07T11:03:15.136Z,31.60
2018-03-07T11:05:42.742Z,30.74
2018-03-07T11:08:10.306Z,31.19
2018-03-07T11:10:37.870Z,31.77
2018-03-07T11:13:05.473Z,33.76
2018-03-07T11:15:33.032Z,33.61
2018-03-07T11:18:00.584Z,35.32
2018-03-07T11:20:28.167Z,34.77
2018-03-07T11:22:55.719Z,32.64
2018-03-07T11:25:23.278Z,33.04
2018-03-07T11:27:50.920Z,32.51
2018-03-07T11:30:18.462Z,30.65
2018-03-07T11:32:46.020Z,32.06
2018-03-07T11:35:13.614Z,28.99
2018-03-07T11:37:41.182Z,30.29
2018-03-07T11:40:08.741Z,29.54
2018-03-07T11:42:36.323Z,31.08
2018-03-07T11:45:03.925Z,31.61
2018-03-07T11:47:31.436Z,32.74
2018-03-07T11:49:59.021Z,32.50
2018-03-07T11:52:26.568Z,33.12
2018-03-07T11:54:54.217Z,32.72
2018-03-07T11:57:21.819Z,33.73
2018-03-07T11:59:49.374Z,34.61
2018-03-07T12:02:16.920Z,35.03
2018-03-07T12:04:44.518Z,34.26
2018-03-07T12:07:12.069Z,34.81
2018-03-07T12:09:39.663Z,36.00
2018-03-07T12:12:07.264Z,34.91
2018-03-07T12:14:34.824Z,32.31
2018-03-07T12:17:02.547Z,31.58
2018-03-07T12:19:30.141Z,32.69
2018-03-07T12:21:57.703Z,31.80
2018-03-07T12:24:25.285Z,30.99
2018-03-07T12:26:52.863Z,31.12
2018-03-07T12:29:20.413Z,33.34
2018-03-07T12:31:47.957Z,34.55
2018-03-07T12:34:15.525Z,35.95
2018-03-07T12:36:43.070Z,36.33
2018-03-07T12:39:10.631Z,37.74
2018-03-07T12:41:38.237Z,37.98
2018-03-07T12:44:05.808Z,39.43
2018-03-07T12:46:33.363Z,40.30
2018-03-07T12:49:00.960Z,41.44
2018-03-07T12:51:28.522Z,41.73
2018-03-07T12:53:56.082Z,42.57
2018-03-07T12:56:23.892Z,42.80
2018-03-07T12:58:51.455Z,42.58
2018-03-07T13:01:19.000Z,42.35
2018-03-07T13:03:46.590Z,40.34
2018-03-07T13:06:14.336Z,41.29
2018-03-07T13:08:41.939Z,41.97
2018-03-07T13:11:09.525Z,42.54
2018-03-07T13:13:37.076Z,41.87
2018-03-07T13:16:04.631Z,41.47
2018-03-07T13:18:32.211Z,42.47
2018-03-07T13:20:59.778Z,42.72
2018-03-07T13:23:27.335Z,45.54
2018-03-07T13:25:54.960Z,45.90
2018-03-07T13:28:22.542Z,46.23
2018-03-07T13:30:50.268Z,45.86
2018-03-07T13:33:17.892Z,46.54
2018-03-07T13:35:45.478Z,46.08
2018-03-07T13:38:13.074Z,45.50
2018-03-07T13:40:40.680Z,45.91
2018-03-07T13:43:08.250Z,47.10
2018-03-07T13:45:35.825Z,48.09
2018-03-07T13:48:03.453Z,49.09
2018-03-07T13:50:31.108Z,48.30
2018-03-07T13:52:58.648Z,49.07
2018-03-07T13:55:26.270Z,47.97
2018-03-07T13:57:53.921Z,48.86
2018-03-07T14:00:21.501Z,49.03
2018-03-07T14:02:49.080Z,50.42
2018-03-07T14:05:16.688Z,49.66
2018-03-07T14:07:44.292Z,50.05
2018-03-07T14:10:11.928Z,50.86
2018-03-07T14:12:39.640Z,50.57
2018-03-07T14:15:07.224Z,49.98
2018-03-07T14:17:34.784Z,50.47
2018-03-07T14:20:02.398Z,51.59
2018-03-07T14:22:29.965Z,51.35
2018-03-07T14:24:57.527Z,52.57
2018-03-07T14:27:25.155Z,53.19
2018-03-07T14:29:52.713Z,53.64
2018-03-07T14:32:20.288Z,54.87
2018-03-07T14:34:47.939Z,54.99
2018-03-07T14:37:15.537Z,56.56
2018-03-07T14:39:43.186Z,56.18
2018-03-07T14:42:10.752Z,57.23
2018-03-07T14:44:38.361Z,57.50
2018-03-07T14:47:05.925Z,57.67
2018-03-07T14:49:33.493Z,58.15
2018-03-07T14:52:01.091Z,58.87
2018-03-07T14:54:28.662Z,59.11
2018-03-07T14:56:56.226Z,61.51
2018-03-07T14:59:23.823Z,63.67
2018-03-07T15:01:51.412Z,67.51
2018-03-07T15:04:19.015Z,69.09
2018-03-07T15:06:46.636Z,72.83
2018-03-07T15:09:14.206Z,73.34
2018-03-07T15:11:41.768Z,73.07
2018-03-07T15:14:09.390Z,72.42
2018-03-07T15:16:36.977Z,72.40
2018-03-07T15:19:04.544Z,70.41
2018-03-07T15:21:32.144Z,69.22
2018-03-07T15:23:59.723Z,71.17
2018-03-07T15:26:27.360Z,73.41
2018-03-07T15:28:55.391Z,74.01
2018-03-07T15:31:23.030Z,74.11
2018-03-07T15:33:50.624Z,74.06
2018-03-07T15:36:18.237Z,72.85
2018-03-07T15:38:46.450Z,72.41
2018-03-07T15:41:14.144Z,73.55
2018-03-07T15:43:42.069Z,74.29
2018-03-07T15:46:10.216Z,74.58
2018-03-07T15:48:40.132Z,74.36
2018-03-07T15:51:11.620Z,74.63
2018-03-07T15:53:41.980Z,74.54
2018-03-07T15:56:09.929Z,75.55
2018-03-07T15:58:38.149Z,76.24
2018-03-07T16:01:06.216Z,76.75
2018-03-07T16:03:34.295Z,76.96
2018-03-07T16:06:01.989Z,76.96
2018-03-07T16:08:29.568Z,76.63
2018-03-07T16:10:57.148Z,77.74
2018-03-07T16:13:24.765Z,77.57
2018-03-07T16:15:52.342Z,78.47
2018-03-07T16:18:19.926Z,79.11
2018-03-07T16:20:47.544Z,79.67
2018-03-07T16:23:15.373Z,80.87
2018-03-07T16:25:42.973Z,82.21
2018-03-07T16:28:10.585Z,82.72
2018-03-07T16:30:38.162Z,84.45
2018-03-07T16:33:05.741Z,84.41
2018-03-07T16:35:33.408Z,83.67
2018-03-07T16:38:00.975Z,84.19
2018-03-07T16:40:28.555Z,84.39
2018-03-07T16:42:56.184Z,84.82
2018-03-07T16:45:23.768Z,81.32
2018-03-07T16:47:51.343Z,79.40
2018-03-07T16:50:18.942Z,78.60
2018-03-07T16:52:46.513Z,78.92
2018-03-07T16:55:14.094Z,79.12
2018-03-07T16:57:41.724Z,80.84
2018-03-07T17:00:09.328Z,81.17
2018-03-07T17:02:36.908Z,82.79
2018-03-07T17:05:04.585Z,83.39
2018-03-07T17:07:32.159Z,83.04
2018-03-07T17:10:00.281Z,80.81
2018-03-07T17:12:27.956Z,80.50
2018-03-07T17:14:55.533Z,81.49
2018-03-07T17:17:23.092Z,82.72
2018-03-07T17:19:50.704Z,83.24
2018-03-07T17:22:18.284Z,84.36
2018-03-07T17:24:45.855Z,84.79
2018-03-07T17:27:13.460Z,85.18
2018-03-07T17:29:41.031Z,86.00
2018-03-07T17:32:08.660Z,85.91
2018-03-07T17:34:36.329Z,87.11
2018-03-07T17:37:03.883Z,87.60
2018-03-07T17:39:31.448Z,88.10
2018-03-07T17:41:59.049Z,88.04
2018-03-07T17:44:26.677Z,88.45
2018-03-07T17:46:54.363Z,89.08
2018-03-07T17:49:22.354Z,89.33
2018-03-07T17:51:49.951Z,89.89
2018-03-07T17:54:17.610Z,90.22
2018-03-07T17:56:45.170Z,90.54
2018-03-07T17:59:12.784Z,90.74
2018-03-07T18:01:40.532Z,90.67
2018-03-07T18:04:08.642Z,90.92
2018-03-07T18:06:36.562Z,90.81
2018-03-07T18:09:04.299Z,90.59
2018-03-07T18:11:31.906Z,90.42
2018-03-07T18:13:59.576Z,90.71
2018-03-07T18:16:27.456Z,91.39
2018-03-07T18:18:55.262Z,91.59
2018-03-07T18:21:22.826Z,91.50
2018-03-07T18:23:50.443Z,91.50
2018-03-07T18:26:18.223Z,91.75
2018-03-07T18:28:45.800Z,91.64
2018-03-07T18:31:13.629Z,90.83
2018-03-07T18:33:41.938Z,89.95
2018-03-07T18:36:09.806Z,88.65
2018-03-07T18:38:37.846Z,87.40
2018-03-07T18:41:06.487Z,85.36
2018-03-07T18:43:34.660Z,85.24
2018-03-07T18:46:02.782Z,83.37
2018-03-07T18:48:30.796Z,83.35
2018-03-07T18:50:59.664Z,82.43
2018-03-07T18:53:28.235Z,81.87
2018-03-07T18:55:56.523Z,82.91
2018-03-07T18:58:24.855Z,87.15
2018-03-07T19:00:53.964Z,89.10
2018-03-07T19:03:21.867Z,91.89
2018-03-07T19:05:49.545Z,93.01
2018-03-07T19:08:17.427Z,94.11
2018-03-07T19:10:45.065Z,92.70
2018-03-07T19:13:13.569Z,90.03
2018-03-07T19:15:41.652Z,91.31
2018-03-07T19:18:09.800Z,91.56
2018-03-07T19:20:37.654Z,91.91
2018-03-07T19:23:06.127Z,92.30
2018-03-07T19:25:35.151Z,92.76
2018-03-07T19:28:03.428Z,92.69
2018-03-07T19:30:31.397Z,92.91
2018-03-07T19:32:59.206Z,93.25
2018-03-07T19:35:26.758Z,93.64
2018-03-07T19:37:54.372Z,93.95
2018-03-07T19:40:21.962Z,94.46
2018-03-07T19:42:49.606Z,92.26
2018-03-07T19:45:17.186Z,92.88
2018-03-07T19:47:44.784Z,93.47
2018-03-07T19:50:12.365Z,93.74
2018-03-07T19:52:40.015Z,93.35
2018-03-07T19:55:07.574Z,93.82
2018-03-07T19:57:35.162Z,94.40
2018-03-07T20:00:03.354Z,95.17
2018-03-07T20:02:31.029Z,95.07
2018-03-07T20:04:58.956Z,94.90
2018-03-07T20:07:26.662Z,95.00
2018-03-07T20:09:54.600Z,95.95
2018-03-07T20:12:23.234Z,96.43
2018-03-07T20:14:51.013Z,96.75
2018-03-07T20:17:18.623Z,96.19
2018-03-07T20:19:46.207Z,96.10
2018-03-07T20:22:13.777Z,95.78
2018-03-07T20:24:41.415Z,95.62
2018-03-07T20:27:09.003Z,95.59
2018-03-07T20:29:36.574Z,95.54
2018-03-07T20:32:04.214Z,96.09
2018-03-07T20:34:31.791Z,96.31
2018-03-07T20:36:59.356Z,96.84
2018-03-07T20:39:26.985Z,97.47
2018-03-07T20:41:55.520Z,98.60
2018-03-07T20:44:23.087Z,99.56
2018-03-07T20:46:50.689Z,99.78
2018-03-07T20:49:18.293Z,99.78
2018-03-07T20:51:45.867Z,100.00
2018-03-07T20:54:13.478Z,100.00
2018-03-07T20:56:41.044Z,100.00
2018-03-07T20:59:09.529Z,100.00
2018-03-07T21:01:37.136Z,100.00
2018-03-07T21:04:04.701Z,100.00
2018-03-07T21:06:32.260Z,100.00
2018-03-07T21:08:59.994Z,100.00
2018-03-07T21:11:27.536Z,99.91
2018-03-07T21:13:55.135Z,99.78
2018-03-07T21:16:22.799Z,99.77
2018-03-07T21:18:50.362Z,99.40
2018-03-07T21:21:18.333Z,99.70
2018-03-07T21:23:45.937Z,99.44
2018-03-07T21:26:13.497Z,98.84
2018-03-07T21:28:41.085Z,98.56
2018-03-07T21:31:08.696Z,98.50
2018-03-07T21:33:36.332Z,98.66
2018-03-07T21:36:03.910Z,98.80
2018-03-07T21:38:31.521Z,99.02
2018-03-07T21:40:59.101Z,98.56
2018-03-07T21:43:26.685Z,98.79
2018-03-07T21:45:54.304Z,99.06
2018-03-07T21:48:21.863Z,98.88
2018-03-07T21:50:49.410Z,99.06
2018-03-07T21:53:17.023Z,99.97
2018-03-07T21:55:44.599Z,99.28
2018-03-07T21:58:12.144Z,99.37
2018-03-07T22:00:39.749Z,99.81
2018-03-07T22:03:07.310Z,100.00
2018-03-07T22:05:34.867Z,99.97
2018-03-07T22:08:02.467Z,99.77
2018-03-07T22:10:30.026Z,99.76
2018-03-07T22:12:57.581Z,99.64
2018-03-07T22:15:25.186Z,99.87
2018-03-07T22:17:52.731Z,100.00
2018-03-07T22:20:20.298Z,100.00
2018-03-07T22:22:47.886Z,100.00
2018-03-07T22:25:15.435Z,100.00
2018-03-07T22:27:43.005Z,100.00
2018-03-07T22:30:10.622Z,100.00
2018-03-07T22:32:38.196Z,100.00
2018-03-07T22:35:05.762Z,100.00
2018-03-07T22:37:33.564Z,100.00
2018-03-07T22:40:01.111Z,100.00
2018-03-07T22:42:28.931Z,100.00
2018-03-07T22:44:56.608Z,100.00
2018-03-07T22:47:24.168Z,100.00
2018-03-07T22:49:51.733Z,100.00
2018-03-07T22:52:19.346Z,100.00
2018-03-07T22:54:46.937Z,100.00
2018-03-07T22:57:14.524Z,100.00
2018-03-07T22:59:42.157Z,100.00
2018-03-07T23:02:09.744Z,100.00
2018-03-07T23:04:37.301Z,100.00
2018-03-07T23:07:04.970Z,100.00
2018-03-07T23:09:32.526Z,100.00
2018-03-07T23:12:00.116Z,100.00
2018-03-07T23:14:27.750Z,100.00
2018-03-07T23:16:55.371Z,100.00
2018-03-07T23:19:22.943Z,100.00
2018-03-07T23:21:50.547Z,100.00
2018-03-07T23:24:18.115Z,100.00
2018-03-07T23:26:45.689Z,100.00
2018-03-07T23:29:13.308Z,100.00
2018-03-07T23:31:40.890Z,100.00
2018-03-07T23:34:08.475Z,100.00
2018-03-07T23:36:36.087Z,100.00
2018-03-07T23:39:03.704Z,100.00
2018-03-07T23:41:31.266Z,100.00
2018-03-07T23:43:58.888Z,100.00
2018-03-07T23:46:26.476Z,100.00
2018-03-07T23:48:54.047Z,100.00
2018-03-07T23:51:21.648Z,100.00
2018-03-07T23:53:49.208Z,100.00
2018-03-07T23:56:16.770Z,100.00
2018-03-07T23:58:44.380Z,100.00
